Estación de Casablanca

Ultimos registro cada 15 minutos 31
Estación Fecha / Hora Temperatura Humedad Lluvia Velocidad Dirección Radiación Presion
31 Casablanca 09-05-2026 07:30 5,6 100 0 0 132 1,9 986,9
30 Casablanca 09-05-2026 07:15 5,7 100 0 0 132 0,6 986,9
29 Casablanca 09-05-2026 07:00 6,4 100 0 0 132 0,6 986,8
28 Casablanca 09-05-2026 06:45 7,1 100 0 0 132 0,6 986,9
27 Casablanca 09-05-2026 06:30 7,4 100 0 0 132 0,6 986,9
26 Casablanca 09-05-2026 06:15 7,6 100 0 0 132 0,6 986,8
25 Casablanca 09-05-2026 06:00 7,8 100 0 0 129 0,6 986,7
24 Casablanca 09-05-2026 05:45 8,2 100 0 0 124 0,6 986,8
23 Casablanca 09-05-2026 05:30 8,2 100 0 0 121 0,6 986,9
22 Casablanca 09-05-2026 05:15 8,2 100 0 0 122 0,6 986,7
21 Casablanca 09-05-2026 05:00 8,3 100 0 0 122 0,6 986,8
20 Casablanca 09-05-2026 04:45 8,4 100 0 0 119 0,6 986,9
19 Casablanca 09-05-2026 04:30 8,4 100 0 0 124 0,6 987
18 Casablanca 09-05-2026 04:15 8,6 100 0 0 142 0,6 986,9
17 Casablanca 09-05-2026 04:00 8,7 100 0 0 164 0,6 987
16 Casablanca 09-05-2026 03:45 8,7 100 0 0 232 0,6 987
15 Casablanca 09-05-2026 03:30 8,7 100 0 0 230 0,6 987
14 Casablanca 09-05-2026 03:15 8,6 100 0 0 230 0,6 987
13 Casablanca 09-05-2026 03:00 8,5 100 0 0 230 0,6 987,2
12 Casablanca 09-05-2026 02:45 8,6 100 0 0 230 0,6 987,4
11 Casablanca 09-05-2026 02:30 8,7 100 0 0 230 0,6 987,5
10 Casablanca 09-05-2026 02:15 8,9 100 0 0 201 0,6 987,5
9 Casablanca 09-05-2026 02:00 9 100 0 0 145 0,6 987,6
8 Casablanca 09-05-2026 01:45 8,9 100 0 0 142 0,6 987,7
7 Casablanca 09-05-2026 01:30 8,9 100 0 0 142 0,6 987,9
6 Casablanca 09-05-2026 01:15 9 100 0 0 129 0,6 987,9
5 Casablanca 09-05-2026 01:00 9,2 100 0 0 132 0,6 988
4 Casablanca 09-05-2026 00:45 9,5 100 0 0 146 0,6 988,1
3 Casablanca 09-05-2026 00:30 9,8 100 0 0 124 0,6 988,4
2 Casablanca 09-05-2026 00:15 9,9 100 0 0 133 0,6 988,4
1 Casablanca 09-05-2026 00:00 10,1 100 0 0 140 0,6 988,6